sensor_id;sensor_type;location;lat;lon;timestamp;temperature;humidity
13806;DHT22;6974;53.606;9.872;2023-08-31T00:00:08;16.20;99.90
13806;DHT22;6974;53.606;9.872;2023-08-31T00:02:37;16.30;99.90
13806;DHT22;6974;53.606;9.872;2023-08-31T00:05:05;16.20;99.90
13806;DHT22;6974;53.606;9.872;2023-08-31T00:07:32;16.20;99.90
13806;DHT22;6974;53.606;9.872;2023-08-31T00:09:58;16.20;99.90
13806;DHT22;6974;53.606;9.872;2023-08-31T00:12:25;16.20;99.90
13806;DHT22;6974;53.606;9.872;2023-08-31T00:14:52;16.20;99.90
13806;DHT22;6974;53.606;9.872;2023-08-31T00:17:19;16.10;99.90
13806;DHT22;6974;53.606;9.872;2023-08-31T00:19:47;16.10;99.90
13806;DHT22;6974;53.606;9.872;2023-08-31T00:22:15;16.10;99.90
13806;DHT22;6974;53.606;9.872;2023-08-31T00:24:42;16.10;99.90
13806;DHT22;6974;53.606;9.872;2023-08-31T00:27:08;16.10;99.90
13806;DHT22;6974;53.606;9.872;2023-08-31T00:29:37;16.00;99.90
13806;DHT22;6974;53.606;9.872;2023-08-31T00:32:04;16.00;99.90
13806;DHT22;6974;53.606;9.872;2023-08-31T00:34:31;16.00;99.90
13806;DHT22;6974;53.606;9.872;2023-08-31T00:37:00;16.00;99.90
13806;DHT22;6974;53.606;9.872;2023-08-31T00:39:26;16.00;99.90
13806;DHT22;6974;53.606;9.872;2023-08-31T00:41:53;15.90;99.90
13806;DHT22;6974;53.606;9.872;2023-08-31T00:44:21;15.80;99.90
13806;DHT22;6974;53.606;9.872;2023-08-31T00:46:48;15.90;99.90
13806;DHT22;6974;53.606;9.872;2023-08-31T00:49:15;15.90;99.90
13806;DHT22;6974;53.606;9.872;2023-08-31T00:51:43;15.80;99.90
13806;DHT22;6974;53.606;9.872;2023-08-31T00:54:16;15.80;99.90
13806;DHT22;6974;53.606;9.872;2023-08-31T00:56:43;15.80;99.90
13806;DHT22;6974;53.606;9.872;2023-08-31T00:59:10;15.80;99.90
13806;DHT22;6974;53.606;9.872;2023-08-31T01:01:43;15.80;99.90
13806;DHT22;6974;53.606;9.872;2023-08-31T01:04:18;15.70;99.90
13806;DHT22;6974;53.606;9.872;2023-08-31T01:06:54;15.70;99.90
13806;DHT22;6974;53.606;9.872;2023-08-31T01:09:34;15.70;99.90
13806;DHT22;6974;53.606;9.872;2023-08-31T01:12:04;15.60;99.90
13806;DHT22;6974;53.606;9.872;2023-08-31T01:14:38;15.60;99.90
13806;DHT22;6974;53.606;9.872;2023-08-31T01:17:12;15.60;99.90
13806;DHT22;6974;53.606;9.872;2023-08-31T01:19:47;15.60;99.90
13806;DHT22;6974;53.606;9.872;2023-08-31T01:22:21;15.60;99.90
13806;DHT22;6974;53.606;9.872;2023-08-31T01:24:53;15.60;99.90
13806;DHT22;6974;53.606;9.872;2023-08-31T01:27:21;15.50;99.90
13806;DHT22;6974;53.606;9.872;2023-08-31T01:29:48;15.50;99.90
13806;DHT22;6974;53.606;9.872;2023-08-31T01:32:14;15.40;99.90
13806;DHT22;6974;53.606;9.872;2023-08-31T01:34:41;15.40;99.90
13806;DHT22;6974;53.606;9.872;2023-08-31T01:37:12;15.40;99.90
13806;DHT22;6974;53.606;9.872;2023-08-31T01:39:43;15.50;99.90
13806;DHT22;6974;53.606;9.872;2023-08-31T01:42:16;15.40;99.90
13806;DHT22;6974;53.606;9.872;2023-08-31T01:44:45;15.50;99.90
13806;DHT22;6974;53.606;9.872;2023-08-31T01:47:15;15.40;99.90
13806;DHT22;6974;53.606;9.872;2023-08-31T01:49:45;15.40;99.90
13806;DHT22;6974;53.606;9.872;2023-08-31T01:52:12;15.30;99.90
13806;DHT22;6974;53.606;9.872;2023-08-31T01:54:38;15.30;99.90
13806;DHT22;6974;53.606;9.872;2023-08-31T01:57:05;15.30;99.90
13806;DHT22;6974;53.606;9.872;2023-08-31T01:59:34;15.30;99.90
13806;DHT22;6974;53.606;9.872;2023-08-31T02:02:01;15.30;99.90
13806;DHT22;6974;53.606;9.872;2023-08-31T02:04:28;15.30;99.90
13806;DHT22;6974;53.606;9.872;2023-08-31T02:06:54;15.20;99.90
13806;DHT22;6974;53.606;9.872;2023-08-31T02:09:21;15.20;99.90
13806;DHT22;6974;53.606;9.872;2023-08-31T02:11:48;15.20;99.90
13806;DHT22;6974;53.606;9.872;2023-08-31T02:14:15;15.20;99.90
13806;DHT22;6974;53.606;9.872;2023-08-31T02:16:44;15.10;99.90
13806;DHT22;6974;53.606;9.872;2023-08-31T02:19:11;15.10;99.90
13806;DHT22;6974;53.606;9.872;2023-08-31T02:21:38;15.10;99.90
13806;DHT22;6974;53.606;9.872;2023-08-31T02:24:06;15.10;99.90
13806;DHT22;6974;53.606;9.872;2023-08-31T02:26:34;15.10;99.90
13806;DHT22;6974;53.606;9.872;2023-08-31T02:29:01;15.10;99.90
13806;DHT22;6974;53.606;9.872;2023-08-31T02:31:28;15.00;99.90
13806;DHT22;6974;53.606;9.872;2023-08-31T02:33:56;14.90;99.90
13806;DHT22;6974;53.606;9.872;2023-08-31T02:36:23;14.90;99.90
13806;DHT22;6974;53.606;9.872;2023-08-31T02:38:50;14.80;99.90
13806;DHT22;6974;53.606;9.872;2023-08-31T02:41:18;14.80;99.90
13806;DHT22;6974;53.606;9.872;2023-08-31T02:43:45;14.80;99.90
13806;DHT22;6974;53.606;9.872;2023-08-31T02:46:12;14.80;99.90
13806;DHT22;6974;53.606;9.872;2023-08-31T02:48:39;14.80;99.90
13806;DHT22;6974;53.606;9.872;2023-08-31T02:51:08;14.80;99.90
13806;DHT22;6974;53.606;9.872;2023-08-31T02:53:34;14.80;99.90
13806;DHT22;6974;53.606;9.872;2023-08-31T02:56:01;14.80;99.90
13806;DHT22;6974;53.606;9.872;2023-08-31T02:58:28;14.70;99.90
13806;DHT22;6974;53.606;9.872;2023-08-31T03:00:56;14.70;99.90
13806;DHT22;6974;53.606;9.872;2023-08-31T03:03:33;14.70;99.90
13806;DHT22;6974;53.606;9.872;2023-08-31T03:06:00;14.70;99.90
13806;DHT22;6974;53.606;9.872;2023-08-31T03:08:28;14.70;99.90
13806;DHT22;6974;53.606;9.872;2023-08-31T03:10:57;14.60;99.90
13806;DHT22;6974;53.606;9.872;2023-08-31T03:13:24;14.70;99.90
13806;DHT22;6974;53.606;9.872;2023-08-31T03:15:51;14.70;99.90
13806;DHT22;6974;53.606;9.872;2023-08-31T03:18:18;14.70;99.90
13806;DHT22;6974;53.606;9.872;2023-08-31T03:20:45;14.60;99.90
13806;DHT22;6974;53.606;9.872;2023-08-31T03:23:11;14.60;99.90
13806;DHT22;6974;53.606;9.872;2023-08-31T03:25:40;14.60;99.90
13806;DHT22;6974;53.606;9.872;2023-08-31T03:28:07;14.60;99.90
13806;DHT22;6974;53.606;9.872;2023-08-31T03:30:33;14.60;99.90
13806;DHT22;6974;53.606;9.872;2023-08-31T03:33:00;14.60;99.90
13806;DHT22;6974;53.606;9.872;2023-08-31T03:35:27;14.60;99.90
13806;DHT22;6974;53.606;9.872;2023-08-31T03:37:54;14.50;99.90
13806;DHT22;6974;53.606;9.872;2023-08-31T03:40:21;14.40;99.90
13806;DHT22;6974;53.606;9.872;2023-08-31T03:42:51;14.40;99.90
13806;DHT22;6974;53.606;9.872;2023-08-31T03:45:19;14.40;99.90
13806;DHT22;6974;53.606;9.872;2023-08-31T03:47:46;14.40;99.90
13806;DHT22;6974;53.606;9.872;2023-08-31T03:50:13;14.40;99.90
13806;DHT22;6974;53.606;9.872;2023-08-31T03:52:40;14.40;99.90
13806;DHT22;6974;53.606;9.872;2023-08-31T03:55:07;14.40;99.90
13806;DHT22;6974;53.606;9.872;2023-08-31T03:57:34;14.30;99.90
13806;DHT22;6974;53.606;9.872;2023-08-31T04:00:03;14.30;99.90
13806;DHT22;6974;53.606;9.872;2023-08-31T04:02:34;14.30;99.90
13806;DHT22;6974;53.606;9.872;2023-08-31T04:05:01;14.30;99.90
13806;DHT22;6974;53.606;9.872;2023-08-31T04:07:30;14.30;99.90
13806;DHT22;6974;53.606;9.872;2023-08-31T04:09:57;14.30;99.90
13806;DHT22;6974;53.606;9.872;2023-08-31T04:12:24;14.30;99.90
13806;DHT22;6974;53.606;9.872;2023-08-31T04:14:51;14.30;99.90
13806;DHT22;6974;53.606;9.872;2023-08-31T04:17:19;14.30;99.90
13806;DHT22;6974;53.606;9.872;2023-08-31T04:19:46;14.20;99.90
13806;DHT22;6974;53.606;9.872;2023-08-31T04:22:13;14.20;99.90
13806;DHT22;6974;53.606;9.872;2023-08-31T04:24:40;14.20;99.90
13806;DHT22;6974;53.606;9.872;2023-08-31T04:27:07;14.20;99.90
13806;DHT22;6974;53.606;9.872;2023-08-31T04:29:34;14.20;99.90
13806;DHT22;6974;53.606;9.872;2023-08-31T04:32:01;14.20;99.90
13806;DHT22;6974;53.606;9.872;2023-08-31T04:34:29;14.30;99.90
13806;DHT22;6974;53.606;9.872;2023-08-31T04:36:57;14.20;99.90
13806;DHT22;6974;53.606;9.872;2023-08-31T04:39:23;14.20;99.90
13806;DHT22;6974;53.606;9.872;2023-08-31T04:41:51;14.20;99.90
13806;DHT22;6974;53.606;9.872;2023-08-31T04:44:18;14.20;99.90
13806;DHT22;6974;53.606;9.872;2023-08-31T04:46:45;14.20;99.90
13806;DHT22;6974;53.606;9.872;2023-08-31T04:49:12;14.20;99.90
13806;DHT22;6974;53.606;9.872;2023-08-31T04:51:40;14.20;99.90
13806;DHT22;6974;53.606;9.872;2023-08-31T04:54:08;14.20;99.90
13806;DHT22;6974;53.606;9.872;2023-08-31T04:56:35;14.20;99.90
13806;DHT22;6974;53.606;9.872;2023-08-31T04:59:03;14.20;99.90
13806;DHT22;6974;53.606;9.872;2023-08-31T05:01:29;14.20;99.90
13806;DHT22;6974;53.606;9.872;2023-08-31T05:03:56;14.20;99.90
13806;DHT22;6974;53.606;9.872;2023-08-31T05:06:24;14.20;99.90
13806;DHT22;6974;53.606;9.872;2023-08-31T05:08:52;14.20;99.90
13806;DHT22;6974;53.606;9.872;2023-08-31T05:11:19;14.20;99.90
13806;DHT22;6974;53.606;9.872;2023-08-31T05:13:47;14.20;99.90
13806;DHT22;6974;53.606;9.872;2023-08-31T05:16:14;14.20;99.90
13806;DHT22;6974;53.606;9.872;2023-08-31T05:18:41;14.20;99.90
13806;DHT22;6974;53.606;9.872;2023-08-31T05:21:08;14.30;99.90
13806;DHT22;6974;53.606;9.872;2023-08-31T05:23:34;14.20;99.90
13806;DHT22;6974;53.606;9.872;2023-08-31T05:26:03;14.20;99.90
13806;DHT22;6974;53.606;9.872;2023-08-31T05:28:30;14.20;99.90
13806;DHT22;6974;53.606;9.872;2023-08-31T05:30:57;14.20;99.90
13806;DHT22;6974;53.606;9.872;2023-08-31T05:33:24;14.20;99.90
13806;DHT22;6974;53.606;9.872;2023-08-31T05:35:54;14.20;99.90
13806;DHT22;6974;53.606;9.872;2023-08-31T05:38:21;14.20;99.90
13806;DHT22;6974;53.606;9.872;2023-08-31T05:40:49;14.20;99.90
13806;DHT22;6974;53.606;9.872;2023-08-31T05:43:17;14.20;99.90
13806;DHT22;6974;53.606;9.872;2023-08-31T05:45:44;14.20;99.90
13806;DHT22;6974;53.606;9.872;2023-08-31T05:48:12;14.30;99.90
13806;DHT22;6974;53.606;9.872;2023-08-31T05:50:39;14.30;99.90
13806;DHT22;6974;53.606;9.872;2023-08-31T05:53:08;14.20;99.90
13806;DHT22;6974;53.606;9.872;2023-08-31T05:55:36;14.30;99.90
13806;DHT22;6974;53.606;9.872;2023-08-31T05:58:03;14.30;99.90
13806;DHT22;6974;53.606;9.872;2023-08-31T06:00:31;14.40;99.90
13806;DHT22;6974;53.606;9.872;2023-08-31T06:02:58;14.40;99.90
13806;DHT22;6974;53.606;9.872;2023-08-31T06:05:25;14.30;99.90
13806;DHT22;6974;53.606;9.872;2023-08-31T06:07:53;14.30;99.90
13806;DHT22;6974;53.606;9.872;2023-08-31T06:10:20;14.30;99.90
13806;DHT22;6974;53.606;9.872;2023-08-31T06:12:48;14.30;99.90
13806;DHT22;6974;53.606;9.872;2023-08-31T06:15:15;14.40;99.90
13806;DHT22;6974;53.606;9.872;2023-08-31T06:17:44;14.40;99.90
13806;DHT22;6974;53.606;9.872;2023-08-31T06:20:11;14.40;99.90
13806;DHT22;6974;53.606;9.872;2023-08-31T06:22:38;14.40;99.90
13806;DHT22;6974;53.606;9.872;2023-08-31T06:25:05;14.40;99.90
13806;DHT22;6974;53.606;9.872;2023-08-31T06:27:33;14.40;99.90
13806;DHT22;6974;53.606;9.872;2023-08-31T06:30:01;14.40;99.90
13806;DHT22;6974;53.606;9.872;2023-08-31T06:32:29;14.50;99.90
13806;DHT22;6974;53.606;9.872;2023-08-31T06:34:57;14.50;99.90
13806;DHT22;6974;53.606;9.872;2023-08-31T06:37:24;14.50;99.90
13806;DHT22;6974;53.606;9.872;2023-08-31T06:39:51;14.60;99.90
13806;DHT22;6974;53.606;9.872;2023-08-31T06:42:18;14.60;99.90
13806;DHT22;6974;53.606;9.872;2023-08-31T06:44:46;14.60;99.90
13806;DHT22;6974;53.606;9.872;2023-08-31T06:47:12;14.60;99.90
13806;DHT22;6974;53.606;9.872;2023-08-31T06:49:42;14.60;99.90
13806;DHT22;6974;53.606;9.872;2023-08-31T06:52:11;14.60;99.90
13806;DHT22;6974;53.606;9.872;2023-08-31T06:54:38;14.70;99.90
13806;DHT22;6974;53.606;9.872;2023-08-31T06:57:05;14.70;99.90
13806;DHT22;6974;53.606;9.872;2023-08-31T06:59:31;14.70;99.90
13806;DHT22;6974;53.606;9.872;2023-08-31T07:01:58;14.70;99.90
13806;DHT22;6974;53.606;9.872;2023-08-31T07:04:26;14.70;99.90
13806;DHT22;6974;53.606;9.872;2023-08-31T07:06:53;14.70;99.90
13806;DHT22;6974;53.606;9.872;2023-08-31T07:09:22;14.80;99.90
13806;DHT22;6974;53.606;9.872;2023-08-31T07:11:48;14.80;99.90
13806;DHT22;6974;53.606;9.872;2023-08-31T07:14:15;14.80;99.90
13806;DHT22;6974;53.606;9.872;2023-08-31T07:16:42;14.90;99.90
13806;DHT22;6974;53.606;9.872;2023-08-31T07:19:09;14.90;99.90
13806;DHT22;6974;53.606;9.872;2023-08-31T07:21:36;14.90;99.90
13806;DHT22;6974;53.606;9.872;2023-08-31T07:24:03;14.90;99.90
13806;DHT22;6974;53.606;9.872;2023-08-31T07:26:31;15.00;99.90
13806;DHT22;6974;53.606;9.872;2023-08-31T07:29:00;14.90;99.90
13806;DHT22;6974;53.606;9.872;2023-08-31T07:31:27;15.00;99.90
13806;DHT22;6974;53.606;9.872;2023-08-31T07:33:54;15.00;99.90
13806;DHT22;6974;53.606;9.872;2023-08-31T07:36:20;15.10;99.90
13806;DHT22;6974;53.606;9.872;2023-08-31T07:38:47;15.20;99.90
13806;DHT22;6974;53.606;9.872;2023-08-31T07:41:14;15.20;99.90
13806;DHT22;6974;53.606;9.872;2023-08-31T07:43:42;15.20;99.90
13806;DHT22;6974;53.606;9.872;2023-08-31T07:46:09;15.20;99.90
13806;DHT22;6974;53.606;9.872;2023-08-31T07:48:36;15.20;99.90
13806;DHT22;6974;53.606;9.872;2023-08-31T07:51:03;15.30;99.90
13806;DHT22;6974;53.606;9.872;2023-08-31T07:53:30;15.30;99.90
13806;DHT22;6974;53.606;9.872;2023-08-31T07:55:57;15.30;99.90
13806;DHT22;6974;53.606;9.872;2023-08-31T07:58:24;15.40;99.90
13806;DHT22;6974;53.606;9.872;2023-08-31T08:00:54;15.40;99.90
13806;DHT22;6974;53.606;9.872;2023-08-31T08:03:21;15.50;99.90
13806;DHT22;6974;53.606;9.872;2023-08-31T08:05:48;15.50;99.90
13806;DHT22;6974;53.606;9.872;2023-08-31T08:08:15;15.60;99.90
13806;DHT22;6974;53.606;9.872;2023-08-31T08:10:42;15.60;99.90
13806;DHT22;6974;53.606;9.872;2023-08-31T08:13:09;15.70;99.90
13806;DHT22;6974;53.606;9.872;2023-08-31T08:15:38;15.80;99.90
13806;DHT22;6974;53.606;9.872;2023-08-31T08:18:06;15.80;99.90
13806;DHT22;6974;53.606;9.872;2023-08-31T08:20:33;15.90;99.90
13806;DHT22;6974;53.606;9.872;2023-08-31T08:23:00;15.80;99.90
13806;DHT22;6974;53.606;9.872;2023-08-31T08:25:27;15.90;99.90
13806;DHT22;6974;53.606;9.872;2023-08-31T08:27:54;16.00;99.90
13806;DHT22;6974;53.606;9.872;2023-08-31T08:30:21;16.00;99.90
13806;DHT22;6974;53.606;9.872;2023-08-31T08:32:47;16.00;99.90
13806;DHT22;6974;53.606;9.872;2023-08-31T08:35:16;16.10;99.90
13806;DHT22;6974;53.606;9.872;2023-08-31T08:37:43;16.10;99.90
13806;DHT22;6974;53.606;9.872;2023-08-31T08:40:10;16.20;99.90
13806;DHT22;6974;53.606;9.872;2023-08-31T08:42:42;16.20;99.90
13806;DHT22;6974;53.606;9.872;2023-08-31T08:45:13;16.30;99.90
13806;DHT22;6974;53.606;9.872;2023-08-31T08:47:42;16.40;99.90
13806;DHT22;6974;53.606;9.872;2023-08-31T08:50:10;16.40;99.90
13806;DHT22;6974;53.606;9.872;2023-08-31T08:52:39;16.50;99.90
13806;DHT22;6974;53.606;9.872;2023-08-31T08:55:07;16.50;99.90
13806;DHT22;6974;53.606;9.872;2023-08-31T08:57:34;16.50;99.90
13806;DHT22;6974;53.606;9.872;2023-08-31T09:00:02;16.40;99.90
13806;DHT22;6974;53.606;9.872;2023-08-31T09:02:29;16.30;99.90
13806;DHT22;6974;53.606;9.872;2023-08-31T09:04:56;16.30;99.90
13806;DHT22;6974;53.606;9.872;2023-08-31T09:07:23;16.30;99.90
13806;DHT22;6974;53.606;9.872;2023-08-31T09:09:53;16.30;99.90
13806;DHT22;6974;53.606;9.872;2023-08-31T09:12:22;16.30;99.90
13806;DHT22;6974;53.606;9.872;2023-08-31T09:14:59;16.30;99.90
13806;DHT22;6974;53.606;9.872;2023-08-31T09:17:28;16.50;99.90
13806;DHT22;6974;53.606;9.872;2023-08-31T09:20:04;16.70;99.90
13806;DHT22;6974;53.606;9.872;2023-08-31T09:22:33;16.90;99.90
13806;DHT22;6974;53.606;9.872;2023-08-31T09:25:01;17.10;99.90
13806;DHT22;6974;53.606;9.872;2023-08-31T09:27:29;17.10;99.90
13806;DHT22;6974;53.606;9.872;2023-08-31T09:29:58;17.10;99.90
13806;DHT22;6974;53.606;9.872;2023-08-31T09:32:25;17.00;99.90
13806;DHT22;6974;53.606;9.872;2023-08-31T09:34:52;16.90;99.90
13806;DHT22;6974;53.606;9.872;2023-08-31T09:37:19;16.80;99.90
13806;DHT22;6974;53.606;9.872;2023-08-31T09:39:46;16.90;99.90
13806;DHT22;6974;53.606;9.872;2023-08-31T09:42:14;17.00;99.90
13806;DHT22;6974;53.606;9.872;2023-08-31T09:44:43;17.10;99.90
13806;DHT22;6974;53.606;9.872;2023-08-31T09:47:10;17.00;99.90
13806;DHT22;6974;53.606;9.872;2023-08-31T09:49:38;17.00;99.90
13806;DHT22;6974;53.606;9.872;2023-08-31T09:52:09;16.90;99.90
13806;DHT22;6974;53.606;9.872;2023-08-31T09:54:36;16.90;99.90
13806;DHT22;6974;53.606;9.872;2023-08-31T09:57:05;17.10;99.90
13806;DHT22;6974;53.606;9.872;2023-08-31T09:59:33;17.30;99.90
13806;DHT22;6974;53.606;9.872;2023-08-31T10:02:01;17.40;99.90
13806;DHT22;6974;53.606;9.872;2023-08-31T10:04:29;17.40;99.90
13806;DHT22;6974;53.606;9.872;2023-08-31T10:06:58;17.40;99.90
13806;DHT22;6974;53.606;9.872;2023-08-31T10:09:26;17.40;99.90
13806;DHT22;6974;53.606;9.872;2023-08-31T10:11:54;17.30;99.90
13806;DHT22;6974;53.606;9.872;2023-08-31T10:14:22;17.30;99.90
13806;DHT22;6974;53.606;9.872;2023-08-31T10:16:50;17.30;99.90
13806;DHT22;6974;53.606;9.872;2023-08-31T10:19:18;17.30;99.90
13806;DHT22;6974;53.606;9.872;2023-08-31T10:21:45;17.30;99.90
13806;DHT22;6974;53.606;9.872;2023-08-31T10:24:12;17.30;99.90
13806;DHT22;6974;53.606;9.872;2023-08-31T10:26:39;17.60;99.90
13806;DHT22;6974;53.606;9.872;2023-08-31T10:29:06;17.90;99.90
13806;DHT22;6974;53.606;9.872;2023-08-31T10:31:34;18.20;99.90
13806;DHT22;6974;53.606;9.872;2023-08-31T10:34:03;18.50;99.90
13806;DHT22;6974;53.606;9.872;2023-08-31T10:36:37;18.70;99.90
13806;DHT22;6974;53.606;9.872;2023-08-31T10:39:07;18.80;99.90
13806;DHT22;6974;53.606;9.872;2023-08-31T10:41:37;19.00;99.90
13806;DHT22;6974;53.606;9.872;2023-08-31T10:44:18;19.20;99.90
13806;DHT22;6974;53.606;9.872;2023-08-31T10:46:45;19.30;99.90
13806;DHT22;6974;53.606;9.872;2023-08-31T10:49:15;19.10;99.90
13806;DHT22;6974;53.606;9.872;2023-08-31T10:51:44;19.00;99.90
13806;DHT22;6974;53.606;9.872;2023-08-31T10:54:21;18.80;99.90
13806;DHT22;6974;53.606;9.872;2023-08-31T10:57:02;18.60;99.90
13806;DHT22;6974;53.606;9.872;2023-08-31T10:59:47;18.60;99.90
13806;DHT22;6974;53.606;9.872;2023-08-31T11:02:31;18.90;99.90
13806;DHT22;6974;53.606;9.872;2023-08-31T11:05:02;19.00;99.90
13806;DHT22;6974;53.606;9.872;2023-08-31T11:07:32;19.20;99.90
13806;DHT22;6974;53.606;9.872;2023-08-31T11:10:11;19.40;99.90
13806;DHT22;6974;53.606;9.872;2023-08-31T11:12:39;19.50;99.90
13806;DHT22;6974;53.606;9.872;2023-08-31T11:15:07;19.70;99.90
13806;DHT22;6974;53.606;9.872;2023-08-31T11:17:34;19.90;99.90
13806;DHT22;6974;53.606;9.872;2023-08-31T11:20:02;19.70;99.90
13806;DHT22;6974;53.606;9.872;2023-08-31T11:22:31;19.60;99.90
13806;DHT22;6974;53.606;9.872;2023-08-31T11:24:59;19.50;99.90
13806;DHT22;6974;53.606;9.872;2023-08-31T11:27:26;19.30;99.90
13806;DHT22;6974;53.606;9.872;2023-08-31T11:29:53;19.20;99.90
13806;DHT22;6974;53.606;9.872;2023-08-31T11:32:23;19.50;99.90
13806;DHT22;6974;53.606;9.872;2023-08-31T11:34:50;19.80;99.90
13806;DHT22;6974;53.606;9.872;2023-08-31T11:37:19;20.20;99.90
13806;DHT22;6974;53.606;9.872;2023-08-31T11:39:50;20.70;99.90
13806;DHT22;6974;53.606;9.872;2023-08-31T11:42:17;20.90;99.90
13806;DHT22;6974;53.606;9.872;2023-08-31T11:44:46;20.90;99.90
13806;DHT22;6974;53.606;9.872;2023-08-31T11:47:13;21.10;99.90
13806;DHT22;6974;53.606;9.872;2023-08-31T11:49:41;21.30;99.90
13806;DHT22;6974;53.606;9.872;2023-08-31T11:52:09;21.50;99.90
13806;DHT22;6974;53.606;9.872;2023-08-31T11:54:38;21.40;99.90
13806;DHT22;6974;53.606;9.872;2023-08-31T11:57:07;21.10;99.90
13806;DHT22;6974;53.606;9.872;2023-08-31T11:59:35;20.90;99.90
13806;DHT22;6974;53.606;9.872;2023-08-31T12:02:06;20.80;99.90
13806;DHT22;6974;53.606;9.872;2023-08-31T12:04:33;20.70;99.90
13806;DHT22;6974;53.606;9.872;2023-08-31T12:07:08;20.50;99.90
13806;DHT22;6974;53.606;9.872;2023-08-31T12:09:35;20.30;99.90
13806;DHT22;6974;53.606;9.872;2023-08-31T12:12:04;20.10;99.90
13806;DHT22;6974;53.606;9.872;2023-08-31T12:14:31;19.90;99.90
13806;DHT22;6974;53.606;9.872;2023-08-31T12:17:01;19.50;99.90
13806;DHT22;6974;53.606;9.872;2023-08-31T12:19:29;19.50;99.90
13806;DHT22;6974;53.606;9.872;2023-08-31T12:21:56;19.30;99.90
13806;DHT22;6974;53.606;9.872;2023-08-31T12:24:23;19.20;99.90
13806;DHT22;6974;53.606;9.872;2023-08-31T12:26:50;19.00;99.90
13806;DHT22;6974;53.606;9.872;2023-08-31T12:29:21;18.80;99.90
13806;DHT22;6974;53.606;9.872;2023-08-31T12:31:48;18.70;99.90
13806;DHT22;6974;53.606;9.872;2023-08-31T12:34:15;18.50;99.90
13806;DHT22;6974;53.606;9.872;2023-08-31T12:36:42;18.30;99.90
13806;DHT22;6974;53.606;9.872;2023-08-31T12:39:09;18.10;99.90
13806;DHT22;6974;53.606;9.872;2023-08-31T12:41:36;18.00;99.90
13806;DHT22;6974;53.606;9.872;2023-08-31T12:44:04;17.90;99.90
13806;DHT22;6974;53.606;9.872;2023-08-31T12:46:32;17.80;99.90
13806;DHT22;6974;53.606;9.872;2023-08-31T12:49:00;17.80;99.90
13806;DHT22;6974;53.606;9.872;2023-08-31T12:51:29;17.80;99.90
13806;DHT22;6974;53.606;9.872;2023-08-31T12:53:56;17.80;99.90
13806;DHT22;6974;53.606;9.872;2023-08-31T12:56:22;17.90;99.90
13806;DHT22;6974;53.606;9.872;2023-08-31T12:58:50;18.00;99.90
13806;DHT22;6974;53.606;9.872;2023-08-31T13:01:17;18.10;99.90
13806;DHT22;6974;53.606;9.872;2023-08-31T13:03:46;18.20;99.90
13806;DHT22;6974;53.606;9.872;2023-08-31T13:06:13;18.20;99.90
13806;DHT22;6974;53.606;9.872;2023-08-31T13:08:42;18.40;99.90
13806;DHT22;6974;53.606;9.872;2023-08-31T13:11:10;18.40;99.90
13806;DHT22;6974;53.606;9.872;2023-08-31T13:13:37;18.50;99.90
13806;DHT22;6974;53.606;9.872;2023-08-31T13:16:04;18.50;99.90
13806;DHT22;6974;53.606;9.872;2023-08-31T13:18:31;18.50;99.90
13806;DHT22;6974;53.606;9.872;2023-08-31T13:21:00;18.60;99.90
13806;DHT22;6974;53.606;9.872;2023-08-31T13:23:28;18.60;99.90
13806;DHT22;6974;53.606;9.872;2023-08-31T13:25:55;18.70;99.90
13806;DHT22;6974;53.606;9.872;2023-08-31T13:28:22;18.80;99.90
13806;DHT22;6974;53.606;9.872;2023-08-31T13:30:50;18.90;99.90
13806;DHT22;6974;53.606;9.872;2023-08-31T13:33:17;19.00;99.90
13806;DHT22;6974;53.606;9.872;2023-08-31T13:35:45;19.00;99.90
13806;DHT22;6974;53.606;9.872;2023-08-31T13:38:14;19.00;99.90
13806;DHT22;6974;53.606;9.872;2023-08-31T13:40:41;19.10;99.90
13806;DHT22;6974;53.606;9.872;2023-08-31T13:43:07;19.30;99.90
13806;DHT22;6974;53.606;9.872;2023-08-31T13:45:34;19.40;99.90
13806;DHT22;6974;53.606;9.872;2023-08-31T13:48:01;19.70;99.90
13806;DHT22;6974;53.606;9.872;2023-08-31T13:50:30;19.80;99.90
13806;DHT22;6974;53.606;9.872;2023-08-31T13:52:57;19.90;99.90
13806;DHT22;6974;53.606;9.872;2023-08-31T13:55:25;20.10;99.90
13806;DHT22;6974;53.606;9.872;2023-08-31T13:57:52;20.00;99.90
13806;DHT22;6974;53.606;9.872;2023-08-31T14:00:19;19.90;99.90
13806;DHT22;6974;53.606;9.872;2023-08-31T14:02:46;19.70;99.90
13806;DHT22;6974;53.606;9.872;2023-08-31T14:05:13;19.60;99.90
13806;DHT22;6974;53.606;9.872;2023-08-31T14:07:40;19.40;99.90
13806;DHT22;6974;53.606;9.872;2023-08-31T14:10:08;19.20;99.90
13806;DHT22;6974;53.606;9.872;2023-08-31T14:12:36;19.20;99.90
13806;DHT22;6974;53.606;9.872;2023-08-31T14:15:05;19.20;99.90
13806;DHT22;6974;53.606;9.872;2023-08-31T14:17:32;19.20;99.90
13806;DHT22;6974;53.606;9.872;2023-08-31T14:19:59;19.20;99.90
13806;DHT22;6974;53.606;9.872;2023-08-31T14:22:31;19.10;99.90
13806;DHT22;6974;53.606;9.872;2023-08-31T14:24:58;19.00;99.90
13806;DHT22;6974;53.606;9.872;2023-08-31T14:27:26;19.00;99.90
13806;DHT22;6974;53.606;9.872;2023-08-31T14:29:57;19.10;99.90
13806;DHT22;6974;53.606;9.872;2023-08-31T14:34:59;19.00;99.90
13806;DHT22;6974;53.606;9.872;2023-08-31T14:37:26;18.90;99.90
13806;DHT22;6974;53.606;9.872;2023-08-31T14:39:53;18.90;99.90
13806;DHT22;6974;53.606;9.872;2023-08-31T14:42:20;18.90;99.90
13806;DHT22;6974;53.606;9.872;2023-08-31T14:44:48;18.90;99.90
13806;DHT22;6974;53.606;9.872;2023-08-31T14:47:18;19.00;99.90
13806;DHT22;6974;53.606;9.872;2023-08-31T14:49:46;19.00;99.90
13806;DHT22;6974;53.606;9.872;2023-08-31T14:52:13;19.00;99.90
13806;DHT22;6974;53.606;9.872;2023-08-31T14:54:40;19.00;99.90
13806;DHT22;6974;53.606;9.872;2023-08-31T14:57:07;19.00;99.90
13806;DHT22;6974;53.606;9.872;2023-08-31T14:59:34;19.00;99.90
13806;DHT22;6974;53.606;9.872;2023-08-31T15:02:03;19.00;99.90
13806;DHT22;6974;53.606;9.872;2023-08-31T15:04:33;18.90;99.90
13806;DHT22;6974;53.606;9.872;2023-08-31T15:07:00;18.80;99.90
13806;DHT22;6974;53.606;9.872;2023-08-31T15:09:29;18.80;99.90
13806;DHT22;6974;53.606;9.872;2023-08-31T15:11:58;18.70;99.90
13806;DHT22;6974;53.606;9.872;2023-08-31T15:14:25;18.60;99.90
13806;DHT22;6974;53.606;9.872;2023-08-31T15:16:52;18.50;99.90
13806;DHT22;6974;53.606;9.872;2023-08-31T15:19:21;18.60;99.90
13806;DHT22;6974;53.606;9.872;2023-08-31T15:21:49;18.50;99.90
13806;DHT22;6974;53.606;9.872;2023-08-31T15:24:16;18.50;99.90
13806;DHT22;6974;53.606;9.872;2023-08-31T15:26:43;18.40;99.90
13806;DHT22;6974;53.606;9.872;2023-08-31T15:29:11;18.40;99.90
13806;DHT22;6974;53.606;9.872;2023-08-31T15:31:39;18.40;99.90
13806;DHT22;6974;53.606;9.872;2023-08-31T15:34:09;18.40;99.90
13806;DHT22;6974;53.606;9.872;2023-08-31T15:36:36;18.30;99.90
13806;DHT22;6974;53.606;9.872;2023-08-31T15:39:05;18.30;99.90
13806;DHT22;6974;53.606;9.872;2023-08-31T15:41:33;18.30;99.90
13806;DHT22;6974;53.606;9.872;2023-08-31T15:44:01;18.20;99.90
13806;DHT22;6974;53.606;9.872;2023-08-31T15:46:28;18.20;99.90
13806;DHT22;6974;53.606;9.872;2023-08-31T15:48:56;18.20;99.90
13806;DHT22;6974;53.606;9.872;2023-08-31T15:51:23;18.20;99.90